Date,TemperatureHighF,TemperatureAvgF,TemperatureLowF,DewpointHighF,DewpointAvgF,DewpointLowF,HumidityHigh,HumidityAvg,HumidityLow,PressureMaxIn,PressureMinIn,WindSpeedMaxMPH,WindSpeedAvgMPH,GustSpeedMaxMPH,PrecipitationSumIn
2014-1-1,53,41,31,40,24,16,62,51,37,30.17,30.09,7,0,7,0.01
2014-1-2,59,44,34,51,30,17,76,58,39,30.14,30.02,3,0,3,0.00
2014-1-3,57,44,34,49,29,18,77,56,38,30.03,29.92,5,0,5,0.00
2014-1-4,54,41,32,44,24,16,70,51,35,30.05,29.94,5,0,5,0.01
2014-1-5,53,39,28,44,26,13,78,62,39,30.16,30.04,2,0,2,0.01
2014-1-6,62,47,31,47,32,18,76,56,35,30.23,30.12,5,0,5,0.00
2014-1-7,60,49,37,50,36,21,76,63,47,30.17,30.09,4,0,4,0.00
2014-1-8,56,53,50,43,31,24,62,44,35,30.19,30.11,9,0,9,0.02
2014-1-9,55,52,49,44,30,23,68,44,32,30.23,30.15,7,1,11,0.02
2014-1-10,58,48,42,46,26,21,65,41,32,30.27,30.15,5,0,5,0.01
2014-1-11,55,49,40,32,22,-100,44,36,30,30.25,30.12,7,-4,7,0.08
2014-1-12,54,43,37,46,23,15,77,46,32,30.37,30.23,6,0,6,0.01
2014-1-13,54,41,33,43,20,12,69,43,26,30.42,30.31,2,0,2,0.01
2014-1-14,55,42,32,47,21,11,75,44,25,30.42,30.30,1,0,1,0.01
2014-1-15,59,45,33,50,28,12,77,55,27,30.30,30.17,5,0,5,0.01
2014-1-16,60,44,35,48,28,12,77,55,28,30.18,30.07,3,0,3,0.00
2014-1-17,62,44,32,48,28,-100,77,55,26,30.14,30.06,3,-4,3,0.01
2014-1-18,60,42,32,46,27,11,77,54,27,30.13,30.01,2,0,2,0.00
2014-1-19,62,42,32,47,26,10,77,53,26,30.08,30.00,3,0,3,0.00
2014-1-20,61,45,33,48,29,11,77,55,26,30.18,30.07,5,0,5,0.01
2014-1-21,57,42,30,48,25,9,76,52,24,30.23,30.12,4,0,4,0.00
2014-1-22,60,43,30,51,24,9,76,49,22,30.15,29.91,6,0,6,0.01
2014-1-23,60,44,33,47,25,9,76,49,23,29.96,29.82,3,0,3,0.00
2014-1-24,64,48,35,55,26,7,75,45,14,30.24,29.97,4,0,4,0.01
2014-1-25,63,46,38,53,24,7,77,44,14,30.24,30.08,6,0,6,0.00
2014-1-26,63,48,37,54,24,7,75,42,18,30.09,29.99,5,0,5,0.00
2014-1-27,59,52,45,50,28,10,74,44,21,30.16,30.03,6,0,6,0.00
2014-1-28,63,56,47,50,18,2,63,26,11,30.23,30.15,4,0,4,0.00
2014-1-29,59,55,52,10,-4,-22,17,9,3,30.16,29.97,6,0,6,0.06
2014-1-30,55,52,50,46,24,-11,72,42,7,29.96,29.82,13,1,13,0.02
2014-1-31,54,47,34,45,28,-9,77,55,10,30.06,29.87,12,1,12,0.00
2014-2-1,55,41,30,43,18,-8,76,42,12,30.13,29.99,7,0,7,0.01
2014-2-2,46,44,37,1,-6,-12,21,12,8,30.00,29.80,12,0,12,1.30
2014-2-3,52,43,31,44,16,-30,76,42,3,30.05,29.97,12,1,12,0.01
2014-2-4,53,43,32,44,22,-13,76,49,9,30.14,30.04,6,0,6,0.00
2014-2-5,52,44,30,43,20,-22,76,45,5,30.16,30.02,8,0,8,0.22
2014-2-6,51,48,45,-4,-37,-100,12,4,1,30.00,29.86,5,0,5,0.55
2014-2-7,49,49,49,-100,-100,-100,0,0,100,29.95,29.95,0,0,0,0.00
2014-2-8,57,56,54,50,39,32,0,0,100,30.09,29.97,3,1,20,6.31
2014-2-9,57,56,55,50,41,32,0,0,100,30.09,30.00,2,1,12,5.01
2014-2-10,56,53,48,50,40,32,0,0,100,30.25,30.05,2,0,9,0.00
2014-2-11,56,52,48,35,-22,-100,47,7,1,30.22,30.15,6,0,6,0.01
2014-2-12,57,53,49,50,-5,-100,43,10,2,30.24,30.14,5,0,5,0.00
2014-2-13,63,56,50,50,-2,-100,50,10,1,30.19,30.07,4,-10,6,0.01
2014-2-14,64,56,49,54,-4,-100,71,19,1,30.14,30.02,8,0,8,0.05
2014-2-15,59,53,46,37,-85,-100,45,3,3,30.01,29.94,11,0,11,0.37
2014-2-16,59,51,42,50,6,-100,72,23,1,30.18,30.00,7,0,7,0.01
2014-2-17,57,49,35,50,20,-100,73,31,1,30.15,30.07,11,1,11,0.01
2014-2-18,60,53,42,51,16,-100,71,25,4,30.17,30.06,8,0,8,0.01
2014-2-19,59,53,47,50,38,-100,72,41,5,30.18,30.05,8,-4,9,0.01
2014-2-20,64,48,36,54,5,-100,71,26,1,30.19,30.09,5,0,5,0.00
2014-2-21,66,48,37,52,-52,-100,71,19,5,30.09,29.96,9,0,9,0.01
2014-2-22,61,47,37,51,-66,-100,70,12,3,29.99,29.91,7,0,7,0.00
2014-2-23,60,47,37,50,-23,-100,64,12,1,29.99,29.93,7,0,7,0.00
2014-2-24,67,50,34,56,7,-100,69,19,1,29.96,29.87,7,0,7,0.01
2014-2-25,59,52,41,50,38,-32,70,34,5,29.94,29.87,9,0,9,0.00
2014-2-26,57,55,52,50,32,-25,37,6,3,29.91,29.61,3,0,13,1.91
2014-2-27,62,56,52,50,-2,-100,66,20,3,29.85,29.46,8,0,12,0.01
2014-2-28,58,54,52,11,-98,-100,16,0,2,29.46,29.31,8,0,8,1.06
2014-3-1,64,58,51,53,4,-100,67,26,2,29.77,29.42,12,1,12,0.11
2014-3-2,60,55,49,50,-9,-100,50,10,1,30.08,29.77,11,0,11,0.03
2014-3-3,59,55,54,50,-36,-100,33,3,1,30.10,30.00,9,0,9,0.45
2014-3-4,63,57,53,50,-16,-100,57,9,1,30.08,30.00,6,0,6,0.07
2014-3-5,65,58,53,50,-68,-100,58,8,1,30.06,29.94,12,0,12,0.62
2014-3-6,62,56,50,50,-19,-100,48,5,2,30.17,30.00,5,0,6,0.02
2014-3-7,63,52,43,52,-8,-100,68,20,1,30.16,30.08,7,0,7,0.01
2014-3-8,69,55,41,57,-5,-100,67,21,2,30.17,30.08,7,0,7,0.00
2014-3-9,72,60,48,59,38,-100,67,37,1,30.16,30.03,6,0,6,0.00
2014-3-10,63,56,47,52,28,-100,68,34,2,30.22,30.06,9,1,9,0.08
2014-3-11,70,54,40,50,36,-50,68,35,1,30.19,29.99,6,0,6,0.01
2014-3-12,74,58,43,45,32,-40,68,42,2,30.08,29.98,6,1,12,0.00
2014-3-13,68,53,35,53,27,-100,68,35,2,30.02,29.95,8,0,8,0.00
2014-3-14,66,56,46,54,19,-100,65,29,1,30.20,30.02,6,0,7,0.00
2014-3-15,67,51,40,54,-59,-100,64,14,1,30.28,30.19,9,0,9,0.00
2014-3-16,61,52,39,50,19,-100,63,21,3,30.28,30.18,8,1,8,0.00
2014-3-17,62,55,48,50,35,-48,67,44,1,30.20,29.96,11,1,15,0.00
2014-3-18,70,53,35,50,35,-100,68,29,2,29.97,29.88,7,0,7,0.00
2014-3-19,72,53,33,54,44,-18,68,40,5,30.04,29.93,9,0,9,0.00
2014-3-20,65,51,39,52,20,-100,66,33,3,30.02,29.92,9,1,9,0.00
2014-3-21,65,50,41,53,-34,-100,66,27,4,29.95,29.90,9,0,9,0.00
2014-3-22,67,50,36,53,14,-100,66,28,1,30.09,29.94,8,-8,8,0.00
2014-3-23,64,53,41,52,20,-100,66,29,1,30.14,30.07,7,1,7,0.00
2014-3-24,64,51,38,52,32,-100,66,29,2,30.13,30.00,6,1,6,0.00
2014-3-25,59,50,37,50,39,32,0,0,100,30.02,29.82,1,0,4,0.04
2014-3-26,60,55,50,50,13,-100,52,15,1,29.88,29.75,9,1,9,0.40
2014-3-27,61,55,45,50,3,-100,64,21,4,30.08,29.91,7,0,7,0.14
2014-3-28,65,58,53,50,-8,-100,56,14,2,30.14,30.06,14,1,14,0.02
2014-3-29,58,55,50,-100,-100,-100,0,0,100,30.06,29.97,12,0,12,1.12
2014-3-30,60,54,46,50,36,-100,66,38,1,30.10,29.99,7,-4,7,0.00
2014-3-31,54,48,40,50,-55,-100,22,0,1,30.05,29.78,8,0,11,1.42
2014-4-1,58,50,42,50,-11,-100,66,19,5,29.87,29.77,11,0,11,0.54
2014-4-2,59,50,38,50,23,-100,66,31,4,30.06,29.82,8,1,8,0.01
2014-4-3,63,53,40,50,32,-100,65,32,2,30.08,29.99,8,0,8,0.00
2014-4-4,58,53,46,50,-25,-100,37,5,3,30.03,29.94,10,1,10,0.28
2014-4-5,61,54,41,50,14,-100,64,28,2,30.16,30.02,13,1,13,0.01
2014-4-6,71,57,42,56,36,-100,63,28,6,30.20,30.14,7,0,7,0.00
2014-4-7,69,69,69,54,54,54,59,59,59,30.16,30.16,1,1,6,0.00
2014-4-8,76,70,50,60,55,50,59,58,50,30.16,29.99,1,1,114,0.00
2014-4-9,72,70,68,55,53,52,57,56,54,30.08,29.96,0,0,0,0.00
2014-4-10,75,67,50,59,52,50,59,55,50,30.02,29.83,0,0,0,0.00
2014-4-11,80,56,50,64,51,48,85,62,49,29.92,29.51,5,0,5,0.69
2014-4-12,63,55,50,51,49,47,92,80,63,29.91,29.83,8,0,8,0.00
2014-4-13,65,57,50,54,50,47,94,79,67,30.00,29.90,5,0,8,0.00
2014-4-14,68,56,49,57,51,47,94,83,66,30.06,29.98,7,0,7,0.00
2014-4-15,66,55,49,54,49,45,93,81,62,30.03,29.87,10,1,10,0.00
2014-4-16,68,56,42,53,48,41,97,76,55,29.90,29.82,9,1,9,0.00
2014-4-17,62,54,42,53,48,41,97,82,69,29.86,29.77,11,1,11,0.00
2014-4-18,62,54,48,52,48,45,94,81,68,29.91,29.84,15,1,15,0.00
2014-4-19,63,55,46,54,50,44,94,83,63,30.08,29.90,12,1,12,0.00
2014-4-20,75,56,41,59,47,-100,97,74,43,30.11,30.04,10,-4,10,0.00
2014-4-21,65,55,41,52,48,40,97,79,58,30.05,29.94,13,0,13,0.00
2014-4-22,60,54,47,51,45,42,92,74,52,30.10,29.94,16,1,16,0.01
2014-4-23,61,54,41,50,45,-100,92,73,58,30.13,30.07,10,-8,10,0.00
2014-4-24,66,59,50,55,54,48,96,84,66,30.07,29.94,9,1,9,0.01
2014-4-25,56,52,47,53,49,45,97,91,82,29.94,29.76,10,0,10,0.43
2014-4-26,60,52,42,48,44,40,96,76,54,30.04,29.76,11,1,11,0.01
2014-4-27,62,56,48,54,50,45,97,82,58,30.09,29.96,12,1,12,0.20
2014-4-28,68,56,40,54,46,39,97,72,49,30.19,30.10,8,1,8,0.00
2014-4-29,79,62,40,59,51,39,97,70,41,30.16,30.02,8,0,8,0.00
2014-4-30,88,69,46,60,51,45,97,60,24,30.02,29.95,10,1,10,0.00
2014-5-1,82,65,46,61,51,43,97,66,29,30.07,29.98,9,0,9,0.00
2014-5-2,63,56,49,55,52,47,96,87,73,30.07,30.00,8,1,8,0.00
2014-5-3,64,58,52,54,52,50,96,81,66,30.02,29.96,12,1,12,0.00
2014-5-4,65,59,51,56,53,50,97,82,68,30.03,29.97,8,1,8,0.00
2014-5-5,64,57,48,54,50,46,98,77,59,30.01,29.92,15,2,15,0.00
2014-5-6,64,56,44,52,48,42,93,74,55,29.93,29.85,14,1,14,0.00
2014-5-7,62,55,45,50,47,43,94,76,59,29.96,29.85,13,1,14,0.00
2014-5-8,61,56,51,57,53,47,96,88,81,30.04,29.95,11,0,11,0.15
2014-5-9,63,57,51,56,52,47,97,85,70,30.14,30.04,15,1,15,0.01
2014-5-10,63,56,47,50,47,45,92,74,57,30.11,30.03,15,2,15,0.00
2014-5-11,72,58,39,51,45,38,97,67,36,30.09,30.01,11,1,11,0.00
2014-5-12,82,60,40,59,50,-100,97,72,34,30.07,30.01,10,-4,10,0.00
2014-5-13,90,68,43,59,50,42,97,58,20,30.08,30.03,8,0,8,0.00
2014-5-14,86,68,45,58,48,39,94,55,22,30.08,30.01,8,0,8,0.00
2014-5-15,70,60,44,57,51,42,94,73,55,30.08,30.01,10,1,10,0.00
2014-5-16,69,58,44,55,51,43,97,79,54,30.07,29.96,11,1,11,0.00
2014-5-17,63,57,53,55,52,48,92,82,72,29.98,29.91,13,2,13,0.00
2014-5-18,65,59,50,56,52,48,96,79,69,29.97,29.91,18,2,18,0.00
2014-5-19,67,59,52,54,52,49,90,77,61,29.94,29.89,14,2,14,0.00
2014-5-20,71,60,52,55,52,49,92,76,55,29.96,29.89,13,1,13,0.00
2014-5-21,73,60,48,58,53,47,95,77,57,29.93,29.89,10,1,10,0.00
2014-5-22,68,59,51,58,53,49,93,81,65,29.99,29.86,8,1,8,0.00
2014-5-23,72,59,52,60,53,49,94,80,61,30.00,29.90,11,1,11,0.00
2014-5-24,65,56,51,55,51,48,94,83,65,29.98,29.89,13,1,13,0.00
2014-5-25,69,58,48,54,49,46,94,73,49,29.95,29.90,17,1,17,0.00
2014-5-26,67,61,52,56,52,48,88,73,64,30.00,29.92,14,2,14,0.00
2014-5-27,64,56,49,50,48,45,92,75,59,30.02,29.97,2,1,16,0.00
2014-5-28,65,57,47,49,46,42,90,68,53,30.05,29.94,2,1,12,0.00
2014-5-29,72,56,41,54,47,40,97,76,49,29.94,29.87,4,1,11,0.00
2014-5-30,60,53,44,52,48,43,96,85,72,29.94,29.85,10,0,11,0.00
2014-5-31,70,58,48,57,52,46,94,80,58,29.93,29.88,8,1,8,0.00
2014-6-1,67,58,47,57,52,46,96,82,67,29.89,29.77,9,1,9,0.00
2014-6-2,64,56,51,55,51,49,94,84,67,29.88,29.78,10,1,10,0.00
2014-6-3,67,57,48,56,51,46,93,82,67,29.92,29.84,9,0,9,0.00
2014-6-4,69,58,49,59,53,47,95,83,68,29.87,29.80,8,1,8,0.00
2014-6-5,72,61,51,57,53,49,94,77,55,29.82,29.76,11,1,11,0.00
2014-6-6,67,59,51,57,53,48,92,81,66,29.82,29.76,11,1,11,0.00
2014-6-7,72,60,46,58,53,45,97,79,62,29.81,29.74,6,1,7,0.00
2014-6-8,77,63,46,62,55,45,97,78,60,29.79,29.69,8,1,8,0.00
2014-6-9,80,63,48,64,55,-100,98,77,54,29.71,29.65,9,-3,9,0.00
2014-6-10,66,60,50,58,55,49,97,84,71,29.77,29.67,11,1,11,0.00
2014-6-11,64,59,56,56,54,51,92,83,72,29.87,29.77,7,1,8,0.00
2014-6-12,65,58,51,55,51,-100,94,81,65,29.95,29.86,13,-3,13,0.00
2014-6-13,68,60,50,54,51,48,94,73,58,29.96,29.89,12,1,12,0.00
2014-6-14,74,59,43,58,49,-100,97,73,53,29.91,29.79,11,-8,11,0.00
2014-6-15,67,58,51,55,51,48,91,78,62,29.80,29.75,14,2,14,0.00
2014-6-16,63,57,51,52,50,47,91,77,65,29.87,29.78,17,2,17,0.00
2014-6-17,70,60,44,53,48,42,95,68,46,29.93,29.83,9,1,9,0.00
2014-6-18,76,61,42,59,51,41,97,72,48,29.92,29.87,9,1,9,0.00
2014-6-19,75,62,43,58,52,42,97,71,51,29.96,29.90,9,1,9,0.00
2014-6-20,69,59,45,56,51,44,97,76,58,29.96,29.90,11,1,11,0.00
2014-6-21,64,57,50,54,50,47,92,80,67,29.91,29.85,14,1,14,0.00
2014-6-22,69,57,45,55,50,44,96,81,56,29.91,29.84,11,1,11,0.00
2014-6-23,72,60,50,56,50,-100,94,72,53,29.93,29.87,12,-3,12,0.00
2014-6-24,66,60,51,56,54,49,92,80,68,29.99,29.91,18,2,18,0.00
2014-6-25,68,61,54,61,57,-100,96,87,75,29.96,29.90,15,-3,15,0.00
2014-6-26,71,64,57,60,57,55,96,80,61,29.95,29.91,12,1,12,0.00
2014-6-27,72,63,55,64,59,54,96,85,75,29.96,29.90,9,1,9,0.00
2014-6-28,70,62,54,59,54,51,97,79,61,29.93,29.87,15,1,15,0.00
2014-6-29,74,63,52,58,54,50,94,74,52,29.90,29.81,10,1,10,0.00
2014-6-30,84,68,48,63,55,47,97,66,39,29.80,29.74,11,1,11,0.00
2014-7-1,67,60,54,58,55,51,93,83,71,29.82,29.75,10,1,10,0.00
2014-7-2,73,61,54,61,55,53,94,82,62,29.85,29.78,11,1,11,0.00
2014-7-3,78,62,49,60,54,48,95,77,51,29.88,29.83,8,1,8,0.00
2014-7-4,74,58,48,59,52,46,96,84,55,29.96,29.85,9,0,9,0.00
2014-7-5,73,61,52,60,54,50,93,80,63,30.03,29.96,10,1,10,0.00
2014-7-6,70,61,52,58,54,50,94,79,63,30.02,29.92,9,1,9,0.00
2014-7-7,76,63,52,62,56,50,94,80,63,29.89,29.81,10,1,10,0.00
2014-7-8,74,63,55,61,56,53,93,80,62,29.87,29.80,11,1,11,0.00
2014-7-9,69,61,56,59,56,54,94,84,67,29.92,29.84,9,1,9,0.00
2014-7-10,68,60,56,60,56,54,95,87,70,29.91,29.85,11,0,11,0.01
2014-7-11,69,61,56,58,56,54,95,84,66,30.03,29.90,10,0,10,0.04
2014-7-12,68,60,55,58,55,53,95,84,71,30.07,30.00,10,1,10,0.00
2014-7-13,72,61,55,60,56,53,95,84,66,30.00,29.86,9,1,9,0.00
2014-7-14,84,66,48,64,56,47,97,72,44,29.89,29.81,13,1,13,0.00
2014-7-15,76,65,56,64,59,54,93,81,64,29.96,29.87,10,1,10,0.00
2014-7-16,69,64,60,61,59,58,94,84,73,30.00,29.93,9,0,9,0.00
2014-7-17,70,62,58,60,58,56,95,85,70,29.98,29.92,7,0,7,0.01
2014-7-18,71,62,58,60,57,56,95,84,65,29.99,29.91,10,0,10,0.01
2014-7-19,74,64,58,62,58,56,95,84,64,29.94,29.90,10,1,10,0.00
2014-7-20,69,62,57,62,59,56,95,88,79,29.97,29.89,5,0,5,0.02
2014-7-21,72,65,60,63,60,58,95,84,70,30.03,29.93,7,0,7,0.00
2014-7-22,75,65,57,62,59,56,96,81,63,30.05,29.99,16,1,16,0.00
2014-7-23,71,65,60,66,61,58,96,87,75,30.10,30.00,14,1,14,0.05
2014-7-24,84,70,57,64,58,54,95,69,48,30.01,29.82,8,1,8,0.00
2014-7-25,81,65,48,65,57,47,97,76,51,29.84,29.80,10,1,10,0.00
2014-7-26,81,65,48,63,57,47,96,77,52,29.92,29.83,9,1,9,0.00
2014-7-27,82,68,55,64,58,53,94,73,44,29.95,29.89,8,1,8,0.00
2014-7-28,75,65,56,61,56,53,91,76,54,30.02,29.94,8,1,8,0.00
2014-7-29,73,64,56,62,57,54,93,80,65,30.02,29.95,10,1,10,0.00
2014-7-30,76,64,56,63,58,53,91,79,63,29.97,29.91,9,1,9,0.00
2014-7-31,77,64,56,62,57,54,92,79,60,29.94,29.86,9,1,9,0.00
2014-8-1,72,61,55,61,56,53,94,83,64,29.89,29.85,6,1,10,0.00
2014-8-2,64,58,55,57,55,53,93,88,76,29.94,29.85,10,0,10,0.00
2014-8-3,68,60,56,59,55,53,93,84,70,29.94,29.88,8,1,8,0.00
2014-8-4,71,62,56,60,57,54,93,83,67,29.96,29.90,11,0,11,0.00
2014-8-5,65,60,57,59,56,55,93,89,80,30.03,29.96,3,0,3,0.00
2014-8-6,73,63,56,62,58,54,95,84,66,30.00,29.91,2,1,10,0.00
2014-8-7,75,63,57,61,56,54,91,80,59,29.93,29.85,8,1,8,0.00
2014-8-8,80,64,50,61,54,49,94,74,51,29.88,29.82,10,1,10,0.00
2014-8-9,67,59,54,57,54,52,91,83,67,29.93,29.84,9,1,11,0.00
2014-8-10,70,62,56,59,56,53,91,81,65,29.97,29.89,10,1,10,0.00
2014-8-11,76,65,52,61,57,50,94,76,57,29.92,29.86,9,1,9,0.00
2014-8-12,71,63,59,59,56,55,87,79,65,29.96,29.89,7,0,7,0.00
2014-8-13,75,64,57,61,57,54,91,78,60,29.97,29.89,11,1,11,0.00
2014-8-14,75,63,56,60,56,53,92,79,58,29.93,29.87,7,1,7,0.00
2014-8-15,78,65,55,62,57,52,90,77,57,29.98,29.89,7,0,7,0.00
2014-8-16,80,64,54,61,56,50,91,76,53,30.01,29.93,10,0,10,0.00
2014-8-17,78,63,56,61,56,53,92,80,53,30.00,29.89,8,1,8,0.00
2014-8-18,64,60,56,58,56,54,93,86,77,29.89,29.78,7,0,7,0.00
2014-8-19,68,62,57,59,57,54,92,84,72,29.83,29.78,5,0,7,0.01
2014-8-20,67,62,59,59,57,56,91,85,76,29.91,29.81,7,0,7,0.01
2014-8-21,77,65,57,64,58,54,92,79,60,29.93,29.86,7,0,7,0.00
2014-8-22,74,65,56,61,57,53,92,78,62,29.90,29.85,8,1,8,0.00
2014-8-23,72,64,58,60,57,55,89,78,63,29.91,29.83,9,1,9,0.00
2014-8-24,74,65,55,59,56,52,91,74,60,29.88,29.79,9,1,9,0.00
2014-8-25,72,64,59,58,56,54,83,76,62,29.86,29.79,8,0,8,0.00
2014-8-26,75,65,56,59,56,53,88,73,57,29.98,29.91,9,1,9,0.00
2014-8-27,73,63,52,60,56,50,94,80,63,30.04,29.96,9,1,9,0.00
2014-8-28,74,64,57,61,57,54,90,79,62,30.04,29.91,7,1,7,0.00
2014-8-29,77,64,58,64,58,55,91,80,59,29.93,29.84,10,1,10,0.00
2014-8-30,76,66,53,60,57,51,94,75,57,29.90,29.81,16,1,16,0.00
2014-8-31,72,65,58,59,56,53,89,74,58,29.90,29.80,8,1,8,0.00
2014-9-1,80,63,48,64,55,46,93,77,53,29.81,29.73,7,0,7,0.00
2014-9-2,66,61,50,57,55,48,93,81,71,29.82,29.74,8,0,8,0.00
2014-9-3,74,64,57,60,56,53,88,78,62,29.77,29.68,8,0,10,0.00
2014-9-4,71,64,58,59,56,52,87,78,65,29.74,29.66,9,1,10,0.00
2014-9-5,71,62,52,59,55,50,92,80,65,29.87,29.76,8,0,10,0.00
2014-9-6,74,64,57,58,54,51,83,73,56,29.93,29.85,8,0,8,0.00
2014-9-7,70,62,57,56,53,51,81,74,61,29.87,29.78,7,0,7,0.00
2014-9-8,64,59,56,53,52,50,83,76,67,29.89,29.81,7,0,8,0.00
2014-9-9,76,63,53,61,55,49,88,76,57,29.96,29.87,6,0,7,0.00
2014-9-10,76,64,52,63,56,49,91,78,62,29.91,29.81,6,1,6,0.00
2014-9-11,76,62,49,63,56,47,93,82,64,29.88,29.80,7,1,8,0.00
2014-9-12,74,62,56,62,56,52,90,81,66,29.87,29.78,8,0,8,0.00
2014-9-13,76,62,53,62,56,50,90,81,61,29.82,29.75,8,0,9,0.00
2014-9-14,76,61,51,61,54,49,93,81,56,29.82,29.77,8,0,8,0.00
2014-9-15,77,63,51,60,55,49,93,78,48,29.89,29.80,7,0,7,0.00
2014-9-16,77,65,52,62,58,50,94,79,56,29.89,29.78,7,0,7,0.00
2014-9-17,76,68,60,62,59,56,90,76,57,29.78,29.69,9,0,10,0.11
2014-9-18,74,68,61,66,63,57,91,86,73,29.83,29.72,7,0,7,0.20
2014-9-19,75,66,59,65,61,56,92,84,70,29.88,29.81,5,0,5,0.00
2014-9-20,70,64,62,61,59,58,89,83,72,29.91,29.83,6,0,6,0.00
2014-9-21,71,65,61,61,59,58,88,79,68,29.97,29.88,8,0,8,0.00
2014-9-22,73,65,56,60,57,53,93,77,63,30.00,29.92,6,0,7,0.00
2014-9-23,77,65,53,66,60,50,94,84,67,29.97,29.89,8,0,8,0.00
2014-9-24,75,66,60,66,62,57,92,87,74,29.92,29.83,8,0,9,0.08
2014-9-25,71,62,54,62,58,52,94,86,71,29.96,29.85,7,0,8,0.27
2014-9-26,71,62,52,61,57,51,94,84,69,29.96,29.87,10,1,10,0.00
2014-9-27,73,63,54,60,57,52,94,81,62,29.89,29.78,8,1,9,0.00
2014-9-28,72,61,50,61,56,48,94,84,68,29.90,29.77,9,0,10,0.00
2014-9-29,66,61,56,58,56,54,93,85,77,29.99,29.92,8,0,10,0.00
2014-9-30,71,63,56,61,57,52,92,80,65,29.95,29.81,7,0,8,0.01
2014-10-1,79,61,46,60,51,45,95,72,39,29.87,29.82,7,0,7,0.00
2014-10-2,88,62,42,55,47,39,93,64,23,29.98,29.90,4,0,4,0.00
2014-10-3,91,68,46,57,50,43,94,57,26,30.04,29.96,6,0,6,0.00
2014-10-4,79,60,44,60,50,40,91,71,40,30.00,29.90,7,0,8,0.00
2014-10-5,71,58,42,61,52,40,95,83,68,29.94,29.86,9,0,10,0.00
2014-10-6,69,60,54,61,55,51,93,85,70,29.91,29.83,7,1,7,0.00
2014-10-7,66,58,53,57,54,50,93,85,71,29.91,29.82,9,0,9,0.00
2014-10-8,70,60,51,59,54,48,92,82,62,29.89,29.83,8,1,8,0.00
2014-10-9,65,58,54,57,54,51,92,87,75,29.94,29.87,9,0,9,0.00
2014-10-10,68,59,55,58,54,52,91,84,71,30.02,29.95,8,1,8,0.00
2014-10-11,75,60,50,60,54,48,93,83,54,30.02,29.93,10,0,10,0.00
2014-10-12,82,60,47,61,51,44,95,76,34,29.95,29.86,3,0,4,0.00
2014-10-13,77,60,43,57,50,39,87,71,35,29.93,29.86,15,0,15,0.00
2014-10-14,65,62,59,59,57,55,87,83,79,29.91,29.77,11,0,11,0.00
2014-10-15,68,62,52,62,57,50,93,86,75,29.99,29.80,5,0,7,0.23
2014-10-16,70,56,46,58,51,44,95,84,57,30.00,29.89,5,0,5,0.00
2014-10-17,70,61,47,60,55,45,95,83,63,29.93,29.86,7,0,7,0.00
2014-10-18,75,66,60,63,60,57,93,81,61,29.94,29.85,7,0,7,0.00
2014-10-19,61,59,56,58,56,54,93,91,90,29.88,29.83,0,0,0,0.00
2014-10-20,67,60,52,60,56,50,94,88,74,30.01,29.84,1,0,8,0.19
2014-10-21,65,54,44,55,50,43,96,87,64,30.08,29.98,2,0,10,0.00
2014-10-22,70,56,44,60,52,43,96,88,68,30.04,29.98,1,0,7,0.00
2014-10-23,71,61,52,63,57,50,94,88,71,30.02,29.92,6,0,6,0.00
2014-10-24,67,58,47,60,54,45,96,88,77,29.93,29.82,9,0,9,0.00
2014-10-25,67,61,52,60,57,50,93,86,76,30.10,29.82,13,1,13,0.46
2014-10-26,64,55,47,53,50,46,95,84,65,30.15,30.02,11,0,11,0.01
2014-10-27,65,52,40,54,47,39,95,86,62,30.03,29.98,9,0,9,0.00
2014-10-28,66,53,41,57,49,40,95,87,55,30.09,30.01,6,0,6,0.01
2014-10-29,75,56,47,62,52,45,95,87,62,30.08,29.93,5,0,5,0.00
2014-10-30,71,58,49,60,54,47,94,86,60,29.93,29.83,6,0,8,0.03
2014-10-31,62,58,50,57,54,48,92,89,79,29.85,29.69,7,0,7,0.56
2014-11-1,62,54,48,52,49,45,94,84,68,30.00,29.69,12,0,12,0.00
2014-11-2,62,48,40,53,45,38,95,88,63,30.13,30.00,8,0,8,0.01
2014-11-3,64,51,41,55,48,40,95,88,64,30.22,30.13,5,0,5,0.00
2014-11-4,65,51,40,56,48,39,95,89,69,30.29,30.20,4,0,4,0.01
2014-11-5,69,54,43,59,50,42,95,87,65,30.20,30.05,2,0,4,0.00
2014-11-6,66,56,47,59,53,45,94,90,75,30.19,30.10,5,0,6,0.00
2014-11-7,62,56,48,57,53,46,94,91,84,30.19,30.06,6,0,6,0.01
2014-11-8,66,53,45,61,50,43,95,91,78,30.09,29.98,5,0,5,0.01
2014-11-9,61,54,48,58,52,46,94,91,86,30.00,29.78,7,0,7,0.01
2014-11-10,62,52,43,57,50,41,95,91,82,29.80,29.76,6,0,6,0.00
2014-11-11,63,57,53,54,52,49,90,83,67,29.92,29.80,5,0,5,0.00
2014-11-12,64,56,48,53,50,45,91,82,61,29.98,29.91,3,0,4,0.07
2014-11-13,65,58,53,60,55,51,94,90,81,30.04,29.86,4,0,5,0.11
2014-11-14,62,55,48,56,52,47,94,90,81,30.07,30.01,5,0,5,0.00
2014-11-15,62,51,43,55,48,42,95,90,78,30.16,30.04,7,0,7,0.01
2014-11-16,60,49,41,54,46,40,95,90,70,30.21,30.14,1,0,1,0.00
2014-11-17,62,48,35,46,41,34,95,79,44,30.23,30.06,2,0,4,0.00
2014-11-18,65,54,41,47,44,38,92,69,48,30.08,29.98,2,0,5,0.00
2014-11-19,61,54,50,58,51,45,93,90,74,30.09,29.93,6,0,6,1.21
2014-11-20,56,52,48,54,50,46,94,93,90,30.09,29.91,4,0,4,1.86
2014-11-21,60,53,46,56,51,44,94,92,85,30.06,29.99,5,0,5,0.07
2014-11-22,63,59,46,60,56,44,93,91,87,30.21,29.98,11,1,11,0.93
2014-11-23,58,48,39,55,46,38,95,93,80,30.30,30.21,1,0,3,0.01
2014-11-24,55,46,36,53,44,35,96,93,88,30.36,30.29,2,0,2,0.01
2014-11-25,58,47,39,53,45,37,95,92,81,30.42,30.29,3,0,3,0.00
2014-11-26,60,49,42,55,47,41,96,91,79,30.28,30.15,6,0,6,0.01
2014-11-27,58,47,40,56,45,38,95,93,90,30.16,30.01,1,0,1,0.01
2014-11-28,62,53,42,55,50,41,95,90,76,30.02,29.79,7,0,7,0.30
2014-11-29,61,58,56,58,56,54,93,91,88,29.81,29.70,6,0,7,0.74
2014-11-30,59,55,52,54,52,50,94,90,84,29.91,29.68,7,0,7,0.41
2014-12-1,61,57,52,57,54,50,94,92,86,30.07,29.90,4,0,4,0.22
2014-12-2,60,56,53,58,54,52,94,92,89,29.90,29.62,12,0,12,1.68
2014-12-3,62,61,56,60,58,54,94,91,89,29.76,29.60,16,1,16,0.52
2014-12-4,63,57,51,60,55,49,94,92,87,29.97,29.82,6,0,6,0.11
2014-12-5,64,60,55,61,58,54,94,92,86,30.00,29.90,12,0,12,0.70
2014-12-6,62,56,50,60,54,48,94,93,89,30.17,30.01,1,0,5,0.20
2014-12-7,62,56,49,58,54,47,95,93,87,30.16,30.05,4,0,4,0.01
2014-12-8,66,60,54,62,58,52,94,91,81,30.12,30.07,5,0,5,0.11
2014-12-9,64,60,56,61,58,54,94,92,89,30.15,30.04,2,0,2,0.08
2014-12-10,62,58,54,58,56,52,94,92,88,30.03,29.63,8,0,8,0.89
2014-12-11,61,55,50,59,53,48,94,93,91,29.63,29.41,7,1,15,5.46
2014-12-12,54,49,42,52,47,41,95,94,92,30.04,29.62,1,0,2,0.36
2014-12-13,53,46,42,51,45,40,95,94,93,30.20,30.04,2,0,2,0.00
2014-12-14,55,50,41,51,47,40,95,91,84,30.11,29.93,8,0,8,0.03
2014-12-15,54,50,48,52,48,46,95,93,92,29.92,29.77,4,0,10,1.98
2014-12-16,56,51,45,54,49,44,95,94,89,29.89,29.76,8,0,8,1.49
2014-12-17,56,51,47,53,49,46,95,93,86,30.02,29.88,6,0,6,0.47
2014-12-18,59,53,50,56,51,48,94,93,88,30.14,29.99,7,0,7,0.19
2014-12-19,58,55,51,56,53,49,94,93,92,30.10,30.02,7,0,11,1.26
2014-12-20,59,55,50,57,54,48,95,93,90,30.19,30.08,4,0,4,0.51
2014-12-21,62,59,58,60,57,56,94,93,92,30.27,30.18,8,0,8,0.19
2014-12-22,63,57,50,59,55,49,94,92,88,30.25,30.14,7,0,7,0.00
2014-12-23,58,51,44,57,50,43,96,95,94,30.18,30.07,2,0,2,0.02
2014-12-24,59,52,42,56,49,40,95,90,77,30.08,29.93,13,1,13,0.07
2014-12-25,52,42,35,45,39,33,95,90,67,30.15,30.05,5,0,5,0.01
2014-12-26,52,41,33,44,38,32,94,89,62,30.24,30.09,5,0,5,0.01
2014-12-27,48,38,30,45,37,29,96,94,88,30.34,30.23,3,0,3,0.01
2014-12-28,53,45,34,49,43,33,96,93,84,30.33,30.19,5,0,5,0.00
2014-12-29,51,42,32,45,39,31,96,89,75,30.20,30.07,9,0,9,0.01
2014-12-30,52,42,33,38,29,22,94,64,32,30.26,30.08,8,2,16,0.00
2014-12-31,52,38,30,39,30,19,92,76,38,30.25,30.03,3,0,8,0.00
2015-1-1,46,35,27,41,33,25,94,90,79,30.13,30.03,2,0,2,0.00
2015-1-2,45,36,29,41,34,28,95,92,83,30.18,30.07,1,0,1,0.01